sensor_id;sensor_type;location;lat;lon;timestamp;P1;durP1;ratioP1;P2;durP2;ratioP2
9914;SDS011;4996;48.746;9.174;2023-02-15T00:01:42;20.65;;;11.85;;
9914;SDS011;4996;48.746;9.174;2023-02-15T00:04:08;22.25;;;12.13;;
9914;SDS011;4996;48.746;9.174;2023-02-15T00:06:35;24.17;;;12.98;;
9914;SDS011;4996;48.746;9.174;2023-02-15T00:09:01;20.90;;;11.50;;
9914;SDS011;4996;48.746;9.174;2023-02-15T00:11:27;20.95;;;11.05;;
9914;SDS011;4996;48.746;9.174;2023-02-15T00:16:44;24.95;;;13.18;;
9914;SDS011;4996;48.746;9.174;2023-02-15T00:19:12;22.73;;;13.05;;
9914;SDS011;4996;48.746;9.174;2023-02-15T00:21:39;18.42;;;11.25;;
9914;SDS011;4996;48.746;9.174;2023-02-15T00:24:06;24.13;;;12.07;;
9914;SDS011;4996;48.746;9.174;2023-02-15T00:26:33;19.45;;;11.18;;
9914;SDS011;4996;48.746;9.174;2023-02-15T00:28:59;23.30;;;12.70;;
9914;SDS011;4996;48.746;9.174;2023-02-15T00:31:26;20.98;;;11.38;;
9914;SDS011;4996;48.746;9.174;2023-02-15T00:33:55;27.17;;;12.85;;
9914;SDS011;4996;48.746;9.174;2023-02-15T00:36:21;19.57;;;11.40;;
9914;SDS011;4996;48.746;9.174;2023-02-15T00:38:46;25.30;;;12.10;;
9914;SDS011;4996;48.746;9.174;2023-02-15T00:41:12;20.60;;;11.87;;
9914;SDS011;4996;48.746;9.174;2023-02-15T00:43:37;24.10;;;11.90;;
9914;SDS011;4996;48.746;9.174;2023-02-15T00:46:03;21.07;;;11.90;;
9914;SDS011;4996;48.746;9.174;2023-02-15T00:48:30;21.80;;;11.63;;
9914;SDS011;4996;48.746;9.174;2023-02-15T00:50:56;24.50;;;12.63;;
9914;SDS011;4996;48.746;9.174;2023-02-15T00:53:24;22.00;;;11.65;;
9914;SDS011;4996;48.746;9.174;2023-02-15T00:55:50;18.20;;;11.07;;
9914;SDS011;4996;48.746;9.174;2023-02-15T00:58:16;15.60;;;10.70;;
9914;SDS011;4996;48.746;9.174;2023-02-15T01:00:43;26.97;;;13.90;;
9914;SDS011;4996;48.746;9.174;2023-02-15T01:03:10;21.25;;;12.93;;
9914;SDS011;4996;48.746;9.174;2023-02-15T01:05:36;19.88;;;12.38;;
9914;SDS011;4996;48.746;9.174;2023-02-15T01:08:02;19.50;;;11.60;;
9914;SDS011;4996;48.746;9.174;2023-02-15T01:10:27;24.70;;;12.98;;
9914;SDS011;4996;48.746;9.174;2023-02-15T01:12:53;21.70;;;12.30;;
9914;SDS011;4996;48.746;9.174;2023-02-15T01:15:19;23.48;;;13.00;;
9914;SDS011;4996;48.746;9.174;2023-02-15T01:17:45;21.60;;;12.43;;
9914;SDS011;4996;48.746;9.174;2023-02-15T01:20:26;23.20;;;11.75;;
9914;SDS011;4996;48.746;9.174;2023-02-15T01:22:53;21.67;;;11.55;;
9914;SDS011;4996;48.746;9.174;2023-02-15T01:25:20;22.48;;;12.63;;
9914;SDS011;4996;48.746;9.174;2023-02-15T01:27:47;18.50;;;12.38;;
9914;SDS011;4996;48.746;9.174;2023-02-15T01:30:13;21.67;;;12.77;;
9914;SDS011;4996;48.746;9.174;2023-02-15T01:32:40;21.25;;;12.60;;
9914;SDS011;4996;48.746;9.174;2023-02-15T01:35:06;26.58;;;12.63;;
9914;SDS011;4996;48.746;9.174;2023-02-15T01:37:32;19.50;;;12.57;;
9914;SDS011;4996;48.746;9.174;2023-02-15T01:39:59;24.42;;;13.20;;
9914;SDS011;4996;48.746;9.174;2023-02-15T01:42:25;25.58;;;11.90;;
9914;SDS011;4996;48.746;9.174;2023-02-15T01:44:53;19.58;;;11.10;;
9914;SDS011;4996;48.746;9.174;2023-02-15T01:47:34;22.23;;;12.95;;
9914;SDS011;4996;48.746;9.174;2023-02-15T01:50:12;19.65;;;11.82;;
9914;SDS011;4996;48.746;9.174;2023-02-15T01:55:27;22.85;;;12.45;;
9914;SDS011;4996;48.746;9.174;2023-02-15T01:57:57;18.45;;;11.07;;
9914;SDS011;4996;48.746;9.174;2023-02-15T02:00:24;23.45;;;11.90;;
9914;SDS011;4996;48.746;9.174;2023-02-15T02:02:50;23.37;;;12.70;;
9914;SDS011;4996;48.746;9.174;2023-02-15T02:05:19;21.90;;;12.35;;
9914;SDS011;4996;48.746;9.174;2023-02-15T02:07:45;18.67;;;11.07;;
9914;SDS011;4996;48.746;9.174;2023-02-15T02:10:14;24.08;;;11.52;;
9914;SDS011;4996;48.746;9.174;2023-02-15T02:12:43;29.20;;;11.60;;
9914;SDS011;4996;48.746;9.174;2023-02-15T02:15:11;23.23;;;12.45;;
9914;SDS011;4996;48.746;9.174;2023-02-15T02:25:41;24.80;;;11.75;;
9914;SDS011;4996;48.746;9.174;2023-02-15T02:28:22;24.05;;;11.70;;
9914;SDS011;4996;48.746;9.174;2023-02-15T02:33:47;18.00;;;10.70;;
9914;SDS011;4996;48.746;9.174;2023-02-15T02:36:31;19.48;;;11.55;;
9914;SDS011;4996;48.746;9.174;2023-02-15T02:44:28;20.42;;;12.23;;
9914;SDS011;4996;48.746;9.174;2023-02-15T02:50:01;26.42;;;13.27;;
9914;SDS011;4996;48.746;9.174;2023-02-15T02:52:36;17.70;;;11.48;;
9914;SDS011;4996;48.746;9.174;2023-02-15T02:55:03;18.75;;;12.00;;
9914;SDS011;4996;48.746;9.174;2023-02-15T02:57:37;20.17;;;11.57;;
9914;SDS011;4996;48.746;9.174;2023-02-15T03:00:20;18.83;;;10.90;;
9914;SDS011;4996;48.746;9.174;2023-02-15T03:02:48;20.25;;;12.25;;
9914;SDS011;4996;48.746;9.174;2023-02-15T03:05:23;20.75;;;10.98;;
9914;SDS011;4996;48.746;9.174;2023-02-15T03:07:52;21.83;;;11.10;;
9914;SDS011;4996;48.746;9.174;2023-02-15T03:10:20;19.30;;;11.23;;
9914;SDS011;4996;48.746;9.174;2023-02-15T03:12:48;17.77;;;11.27;;
9914;SDS011;4996;48.746;9.174;2023-02-15T03:15:16;20.83;;;12.43;;
9914;SDS011;4996;48.746;9.174;2023-02-15T03:17:47;28.30;;;14.50;;
9914;SDS011;4996;48.746;9.174;2023-02-15T03:20:22;27.17;;;13.32;;
9914;SDS011;4996;48.746;9.174;2023-02-15T03:22:54;20.05;;;12.63;;
9914;SDS011;4996;48.746;9.174;2023-02-15T03:25:24;23.20;;;12.23;;
9914;SDS011;4996;48.746;9.174;2023-02-15T03:27:55;21.33;;;12.45;;
9914;SDS011;4996;48.746;9.174;2023-02-15T03:30:26;23.33;;;11.45;;
9914;SDS011;4996;48.746;9.174;2023-02-15T03:32:53;20.98;;;12.05;;
9914;SDS011;4996;48.746;9.174;2023-02-15T03:35:23;19.10;;;13.02;;
9914;SDS011;4996;48.746;9.174;2023-02-15T03:37:54;25.45;;;12.05;;
9914;SDS011;4996;48.746;9.174;2023-02-15T03:40:26;19.85;;;12.00;;
9914;SDS011;4996;48.746;9.174;2023-02-15T03:46:12;22.25;;;10.77;;
9914;SDS011;4996;48.746;9.174;2023-02-15T03:48:52;18.10;;;11.63;;
9914;SDS011;4996;48.746;9.174;2023-02-15T03:51:21;18.33;;;11.30;;
9914;SDS011;4996;48.746;9.174;2023-02-15T03:54:02;17.95;;;11.90;;
9914;SDS011;4996;48.746;9.174;2023-02-15T03:56:37;25.15;;;13.55;;
9914;SDS011;4996;48.746;9.174;2023-02-15T03:59:05;21.17;;;11.57;;
9914;SDS011;4996;48.746;9.174;2023-02-15T04:02:02;27.30;;;12.43;;
9914;SDS011;4996;48.746;9.174;2023-02-15T04:04:37;20.50;;;13.05;;
9914;SDS011;4996;48.746;9.174;2023-02-15T04:07:06;28.50;;;16.02;;
9914;SDS011;4996;48.746;9.174;2023-02-15T04:09:33;22.02;;;11.43;;
9914;SDS011;4996;48.746;9.174;2023-02-15T04:12:18;22.70;;;13.60;;
9914;SDS011;4996;48.746;9.174;2023-02-15T04:14:44;21.83;;;12.23;;
9914;SDS011;4996;48.746;9.174;2023-02-15T04:17:28;23.85;;;12.73;;
9914;SDS011;4996;48.746;9.174;2023-02-15T04:19:53;27.30;;;14.30;;
9914;SDS011;4996;48.746;9.174;2023-02-15T04:22:37;25.13;;;13.60;;
9914;SDS011;4996;48.746;9.174;2023-02-15T04:25:21;23.05;;;11.48;;
9914;SDS011;4996;48.746;9.174;2023-02-15T04:27:48;21.53;;;12.43;;
9914;SDS011;4996;48.746;9.174;2023-02-15T04:30:16;22.02;;;13.07;;
9914;SDS011;4996;48.746;9.174;2023-02-15T04:32:43;21.75;;;12.88;;
9914;SDS011;4996;48.746;9.174;2023-02-15T04:35:09;19.73;;;11.13;;
9914;SDS011;4996;48.746;9.174;2023-02-15T04:37:36;21.98;;;11.82;;
9914;SDS011;4996;48.746;9.174;2023-02-15T04:40:02;25.20;;;12.83;;
9914;SDS011;4996;48.746;9.174;2023-02-15T04:42:29;25.92;;;13.05;;
9914;SDS011;4996;48.746;9.174;2023-02-15T04:44:54;22.30;;;11.37;;
9914;SDS011;4996;48.746;9.174;2023-02-15T04:47:20;19.57;;;12.30;;
9914;SDS011;4996;48.746;9.174;2023-02-15T04:49:45;22.30;;;13.80;;
9914;SDS011;4996;48.746;9.174;2023-02-15T04:52:11;25.90;;;12.80;;
9914;SDS011;4996;48.746;9.174;2023-02-15T04:54:37;23.50;;;12.70;;
9914;SDS011;4996;48.746;9.174;2023-02-15T04:57:03;20.50;;;12.30;;
9914;SDS011;4996;48.746;9.174;2023-02-15T04:59:29;21.73;;;11.95;;
9914;SDS011;4996;48.746;9.174;2023-02-15T05:01:54;20.30;;;13.27;;
9914;SDS011;4996;48.746;9.174;2023-02-15T05:04:20;23.23;;;12.37;;
9914;SDS011;4996;48.746;9.174;2023-02-15T05:06:45;21.77;;;12.40;;
9914;SDS011;4996;48.746;9.174;2023-02-15T05:09:11;23.93;;;12.10;;
9914;SDS011;4996;48.746;9.174;2023-02-15T05:11:37;19.05;;;10.98;;
9914;SDS011;4996;48.746;9.174;2023-02-15T05:14:03;20.93;;;13.00;;
9914;SDS011;4996;48.746;9.174;2023-02-15T05:16:29;21.80;;;11.75;;
9914;SDS011;4996;48.746;9.174;2023-02-15T05:18:54;26.90;;;13.50;;
9914;SDS011;4996;48.746;9.174;2023-02-15T05:21:20;20.23;;;11.87;;
9914;SDS011;4996;48.746;9.174;2023-02-15T05:23:45;21.00;;;12.20;;
9914;SDS011;4996;48.746;9.174;2023-02-15T05:26:11;27.77;;;15.00;;
9914;SDS011;4996;48.746;9.174;2023-02-15T05:28:59;24.92;;;13.25;;
9914;SDS011;4996;48.746;9.174;2023-02-15T05:31:24;23.27;;;14.10;;
9914;SDS011;4996;48.746;9.174;2023-02-15T05:33:50;20.50;;;12.10;;
9914;SDS011;4996;48.746;9.174;2023-02-15T05:36:15;22.90;;;13.00;;
9914;SDS011;4996;48.746;9.174;2023-02-15T05:38:41;20.13;;;12.60;;
9914;SDS011;4996;48.746;9.174;2023-02-15T05:41:08;24.27;;;13.10;;
9914;SDS011;4996;48.746;9.174;2023-02-15T05:43:35;21.92;;;12.25;;
9914;SDS011;4996;48.746;9.174;2023-02-15T05:46:01;23.30;;;13.02;;
9914;SDS011;4996;48.746;9.174;2023-02-15T05:48:27;26.63;;;13.68;;
9914;SDS011;4996;48.746;9.174;2023-02-15T05:51:12;23.77;;;11.50;;
9914;SDS011;4996;48.746;9.174;2023-02-15T05:53:39;29.17;;;12.02;;
9914;SDS011;4996;48.746;9.174;2023-02-15T05:56:06;27.93;;;13.20;;
9914;SDS011;4996;48.746;9.174;2023-02-15T05:58:38;22.92;;;12.15;;
9914;SDS011;4996;48.746;9.174;2023-02-15T06:01:11;25.02;;;13.65;;
9914;SDS011;4996;48.746;9.174;2023-02-15T06:03:39;20.77;;;13.05;;
9914;SDS011;4996;48.746;9.174;2023-02-15T06:06:05;27.30;;;11.95;;
9914;SDS011;4996;48.746;9.174;2023-02-15T06:08:31;19.80;;;12.32;;
9914;SDS011;4996;48.746;9.174;2023-02-15T06:10:58;24.13;;;13.88;;
9914;SDS011;4996;48.746;9.174;2023-02-15T06:13:24;33.63;;;16.87;;
9914;SDS011;4996;48.746;9.174;2023-02-15T06:15:49;24.37;;;12.90;;
9914;SDS011;4996;48.746;9.174;2023-02-15T06:18:15;22.33;;;13.20;;
9914;SDS011;4996;48.746;9.174;2023-02-15T06:20:40;23.13;;;13.27;;
9914;SDS011;4996;48.746;9.174;2023-02-15T06:23:06;20.00;;;12.80;;
9914;SDS011;4996;48.746;9.174;2023-02-15T06:25:31;26.67;;;14.67;;
9914;SDS011;4996;48.746;9.174;2023-02-15T06:27:57;22.50;;;13.10;;
9914;SDS011;4996;48.746;9.174;2023-02-15T06:30:22;20.50;;;13.63;;
9914;SDS011;4996;48.746;9.174;2023-02-15T06:32:48;21.43;;;12.03;;
9914;SDS011;4996;48.746;9.174;2023-02-15T06:35:13;20.90;;;12.60;;
9914;SDS011;4996;48.746;9.174;2023-02-15T06:37:39;22.90;;;13.13;;
9914;SDS011;4996;48.746;9.174;2023-02-15T06:40:04;21.23;;;12.50;;
9914;SDS011;4996;48.746;9.174;2023-02-15T06:42:31;23.77;;;14.60;;
9914;SDS011;4996;48.746;9.174;2023-02-15T06:44:56;22.47;;;14.10;;
9914;SDS011;4996;48.746;9.174;2023-02-15T06:47:22;27.90;;;14.43;;
9914;SDS011;4996;48.746;9.174;2023-02-15T06:49:47;25.03;;;13.93;;
9914;SDS011;4996;48.746;9.174;2023-02-15T06:52:13;17.97;;;11.20;;
9914;SDS011;4996;48.746;9.174;2023-02-15T06:54:38;27.83;;;13.73;;
9914;SDS011;4996;48.746;9.174;2023-02-15T06:57:04;21.83;;;13.60;;
9914;SDS011;4996;48.746;9.174;2023-02-15T06:59:29;23.27;;;12.80;;
9914;SDS011;4996;48.746;9.174;2023-02-15T07:01:55;22.60;;;13.30;;
9914;SDS011;4996;48.746;9.174;2023-02-15T07:04:20;21.73;;;14.73;;
9914;SDS011;4996;48.746;9.174;2023-02-15T07:06:46;22.33;;;12.97;;
9914;SDS011;4996;48.746;9.174;2023-02-15T07:09:11;22.77;;;12.73;;
9914;SDS011;4996;48.746;9.174;2023-02-15T07:11:37;22.40;;;13.40;;
9914;SDS011;4996;48.746;9.174;2023-02-15T07:14:21;22.92;;;12.23;;
9914;SDS011;4996;48.746;9.174;2023-02-15T07:16:47;24.30;;;14.20;;
9914;SDS011;4996;48.746;9.174;2023-02-15T07:19:13;22.90;;;13.77;;
9914;SDS011;4996;48.746;9.174;2023-02-15T07:21:38;25.70;;;15.27;;
9914;SDS011;4996;48.746;9.174;2023-02-15T07:24:04;24.87;;;14.50;;
9914;SDS011;4996;48.746;9.174;2023-02-15T07:26:31;26.47;;;13.07;;
9914;SDS011;4996;48.746;9.174;2023-02-15T07:28:57;22.55;;;12.90;;
9914;SDS011;4996;48.746;9.174;2023-02-15T07:31:22;23.17;;;13.90;;
9914;SDS011;4996;48.746;9.174;2023-02-15T07:33:48;21.07;;;12.97;;
9914;SDS011;4996;48.746;9.174;2023-02-15T07:36:14;24.97;;;14.80;;
9914;SDS011;4996;48.746;9.174;2023-02-15T07:38:40;20.92;;;11.93;;
9914;SDS011;4996;48.746;9.174;2023-02-15T07:41:07;24.30;;;12.77;;
9914;SDS011;4996;48.746;9.174;2023-02-15T07:43:35;23.10;;;13.43;;
9914;SDS011;4996;48.746;9.174;2023-02-15T07:46:03;23.67;;;13.93;;
9914;SDS011;4996;48.746;9.174;2023-02-15T07:48:32;22.63;;;12.23;;
9914;SDS011;4996;48.746;9.174;2023-02-15T07:50:58;21.90;;;13.13;;
9914;SDS011;4996;48.746;9.174;2023-02-15T07:53:25;28.02;;;12.50;;
9914;SDS011;4996;48.746;9.174;2023-02-15T07:55:51;23.07;;;14.00;;
9914;SDS011;4996;48.746;9.174;2023-02-15T07:58:17;23.80;;;14.00;;
9914;SDS011;4996;48.746;9.174;2023-02-15T08:00:43;24.27;;;14.30;;
9914;SDS011;4996;48.746;9.174;2023-02-15T08:03:26;21.98;;;13.75;;
9914;SDS011;4996;48.746;9.174;2023-02-15T08:05:54;20.83;;;14.13;;
9914;SDS011;4996;48.746;9.174;2023-02-15T08:08:22;21.58;;;13.77;;
9914;SDS011;4996;48.746;9.174;2023-02-15T08:11:00;22.27;;;14.43;;
9914;SDS011;4996;48.746;9.174;2023-02-15T08:13:45;26.42;;;15.25;;
9914;SDS011;4996;48.746;9.174;2023-02-15T08:16:18;25.63;;;13.57;;
9914;SDS011;4996;48.746;9.174;2023-02-15T08:18:45;38.13;;;14.93;;
9914;SDS011;4996;48.746;9.174;2023-02-15T08:21:11;27.43;;;14.87;;
9914;SDS011;4996;48.746;9.174;2023-02-15T08:23:36;25.03;;;14.60;;
9914;SDS011;4996;48.746;9.174;2023-02-15T08:26:02;23.30;;;14.17;;
9914;SDS011;4996;48.746;9.174;2023-02-15T08:28:28;25.50;;;13.60;;
9914;SDS011;4996;48.746;9.174;2023-02-15T08:30:54;24.90;;;15.30;;
9914;SDS011;4996;48.746;9.174;2023-02-15T08:33:19;21.20;;;13.70;;
9914;SDS011;4996;48.746;9.174;2023-02-15T08:35:45;23.83;;;15.33;;
9914;SDS011;4996;48.746;9.174;2023-02-15T08:38:10;29.17;;;14.93;;
9914;SDS011;4996;48.746;9.174;2023-02-15T08:40:36;19.47;;;11.63;;
9914;SDS011;4996;48.746;9.174;2023-02-15T08:43:02;24.13;;;14.17;;
9914;SDS011;4996;48.746;9.174;2023-02-15T08:45:28;20.03;;;12.60;;
9914;SDS011;4996;48.746;9.174;2023-02-15T08:47:53;21.80;;;12.67;;
9914;SDS011;4996;48.746;9.174;2023-02-15T08:50:19;24.60;;;13.03;;
9914;SDS011;4996;48.746;9.174;2023-02-15T08:52:44;19.03;;;12.80;;
9914;SDS011;4996;48.746;9.174;2023-02-15T08:55:10;19.60;;;12.13;;
9914;SDS011;4996;48.746;9.174;2023-02-15T08:57:35;24.87;;;13.03;;
9914;SDS011;4996;48.746;9.174;2023-02-15T09:00:03;20.10;;;10.70;;
9914;SDS011;4996;48.746;9.174;2023-02-15T09:02:29;17.17;;;11.50;;
9914;SDS011;4996;48.746;9.174;2023-02-15T09:04:55;18.27;;;11.63;;
9914;SDS011;4996;48.746;9.174;2023-02-15T09:07:20;20.07;;;12.60;;
9914;SDS011;4996;48.746;9.174;2023-02-15T09:09:46;17.90;;;11.33;;
9914;SDS011;4996;48.746;9.174;2023-02-15T09:12:12;23.63;;;12.23;;
9914;SDS011;4996;48.746;9.174;2023-02-15T09:14:37;19.47;;;11.60;;
9914;SDS011;4996;48.746;9.174;2023-02-15T09:17:03;19.93;;;12.53;;
9914;SDS011;4996;48.746;9.174;2023-02-15T09:19:29;20.70;;;13.17;;
9914;SDS011;4996;48.746;9.174;2023-02-15T09:21:54;18.17;;;12.00;;
9914;SDS011;4996;48.746;9.174;2023-02-15T09:24:20;24.70;;;13.27;;
9914;SDS011;4996;48.746;9.174;2023-02-15T09:26:46;17.90;;;10.97;;
9914;SDS011;4996;48.746;9.174;2023-02-15T09:29:14;18.33;;;11.17;;
9914;SDS011;4996;48.746;9.174;2023-02-15T09:31:42;20.27;;;10.93;;
9914;SDS011;4996;48.746;9.174;2023-02-15T09:34:10;15.37;;;10.57;;
9914;SDS011;4996;48.746;9.174;2023-02-15T09:36:41;17.43;;;12.77;;
9914;SDS011;4996;48.746;9.174;2023-02-15T09:39:09;15.70;;;11.07;;
9914;SDS011;4996;48.746;9.174;2023-02-15T09:52:44;15.23;;;9.40;;
9914;SDS011;4996;48.746;9.174;2023-02-15T09:58:23;14.67;;;9.20;;
9914;SDS011;4996;48.746;9.174;2023-02-15T10:07:03;13.87;;;9.80;;
9914;SDS011;4996;48.746;9.174;2023-02-15T10:10:06;15.47;;;10.20;;
9914;SDS011;4996;48.746;9.174;2023-02-15T10:13:04;12.97;;;8.43;;
9914;SDS011;4996;48.746;9.174;2023-02-15T10:15:40;14.73;;;8.77;;
9914;SDS011;4996;48.746;9.174;2023-02-15T10:21:39;20.03;;;10.33;;
9914;SDS011;4996;48.746;9.174;2023-02-15T10:26:46;14.90;;;10.27;;
9914;SDS011;4996;48.746;9.174;2023-02-15T10:35:24;19.90;;;10.60;;
9914;SDS011;4996;48.746;9.174;2023-02-15T10:43:28;13.10;;;10.40;;
9914;SDS011;4996;48.746;9.174;2023-02-15T10:57:44;17.70;;;10.70;;
9914;SDS011;4996;48.746;9.174;2023-02-15T11:06:05;17.50;;;10.73;;
9914;SDS011;4996;48.746;9.174;2023-02-15T11:08:39;20.73;;;10.67;;
9914;SDS011;4996;48.746;9.174;2023-02-15T11:11:09;19.63;;;12.20;;
9914;SDS011;4996;48.746;9.174;2023-02-15T11:13:40;19.53;;;12.73;;
9914;SDS011;4996;48.746;9.174;2023-02-15T11:16:12;17.83;;;12.17;;
9914;SDS011;4996;48.746;9.174;2023-02-15T11:18:50;15.63;;;11.83;;
9914;SDS011;4996;48.746;9.174;2023-02-15T11:23:59;14.10;;;11.50;;
9914;SDS011;4996;48.746;9.174;2023-02-15T11:26:33;18.90;;;10.60;;
9914;SDS011;4996;48.746;9.174;2023-02-15T11:29:13;12.97;;;10.57;;
9914;SDS011;4996;48.746;9.174;2023-02-15T11:31:51;13.90;;;11.10;;
9914;SDS011;4996;48.746;9.174;2023-02-15T11:37:09;14.67;;;13.17;;
9914;SDS011;4996;48.746;9.174;2023-02-15T11:39:37;21.80;;;17.40;;
9914;SDS011;4996;48.746;9.174;2023-02-15T11:42:04;22.70;;;18.10;;
9914;SDS011;4996;48.746;9.174;2023-02-15T11:44:39;17.97;;;15.70;;
9914;SDS011;4996;48.746;9.174;2023-02-15T11:47:11;20.67;;;17.53;;
9914;SDS011;4996;48.746;9.174;2023-02-15T11:49:37;22.80;;;18.87;;
9914;SDS011;4996;48.746;9.174;2023-02-15T11:52:07;23.17;;;19.43;;
9914;SDS011;4996;48.746;9.174;2023-02-15T11:54:37;25.17;;;18.83;;
9914;SDS011;4996;48.746;9.174;2023-02-15T11:57:14;23.23;;;18.90;;
9914;SDS011;4996;48.746;9.174;2023-02-15T11:59:47;21.80;;;17.63;;
9914;SDS011;4996;48.746;9.174;2023-02-15T12:02:19;20.67;;;16.27;;
9914;SDS011;4996;48.746;9.174;2023-02-15T12:04:54;23.87;;;17.40;;
9914;SDS011;4996;48.746;9.174;2023-02-15T12:13:24;22.57;;;18.13;;
9914;SDS011;4996;48.746;9.174;2023-02-15T12:15:45;26.13;;;17.57;;
9914;SDS011;4996;48.746;9.174;2023-02-15T12:18:17;25.07;;;17.23;;
9914;SDS011;4996;48.746;9.174;2023-02-15T12:20:49;21.27;;;16.10;;
9914;SDS011;4996;48.746;9.174;2023-02-15T12:23:16;22.33;;;16.80;;
9914;SDS011;4996;48.746;9.174;2023-02-15T12:25:48;23.67;;;16.97;;
9914;SDS011;4996;48.746;9.174;2023-02-15T12:30:54;17.57;;;15.13;;
9914;SDS011;4996;48.746;9.174;2023-02-15T12:33:41;25.53;;;16.83;;
9914;SDS011;4996;48.746;9.174;2023-02-15T12:38:41;25.13;;;17.40;;
9914;SDS011;4996;48.746;9.174;2023-02-15T12:41:23;29.20;;;17.67;;
9914;SDS011;4996;48.746;9.174;2023-02-15T12:44:07;25.33;;;17.63;;
9914;SDS011;4996;48.746;9.174;2023-02-15T12:46:51;20.77;;;17.20;;
9914;SDS011;4996;48.746;9.174;2023-02-15T12:49:29;21.63;;;16.80;;
9914;SDS011;4996;48.746;9.174;2023-02-15T12:52:00;24.63;;;17.00;;
9914;SDS011;4996;48.746;9.174;2023-02-15T12:56:56;20.50;;;16.40;;
9914;SDS011;4996;48.746;9.174;2023-02-15T12:59:25;23.07;;;17.40;;
9914;SDS011;4996;48.746;9.174;2023-02-15T13:01:51;22.13;;;17.80;;
9914;SDS011;4996;48.746;9.174;2023-02-15T13:04:21;20.13;;;15.60;;
9914;SDS011;4996;48.746;9.174;2023-02-15T13:06:51;24.97;;;17.77;;
9914;SDS011;4996;48.746;9.174;2023-02-15T13:11:50;22.93;;;17.80;;
9914;SDS011;4996;48.746;9.174;2023-02-15T13:14:17;21.97;;;17.57;;
9914;SDS011;4996;48.746;9.174;2023-02-15T13:16:47;24.40;;;17.30;;
9914;SDS011;4996;48.746;9.174;2023-02-15T13:19:15;23.57;;;17.87;;
9914;SDS011;4996;48.746;9.174;2023-02-15T13:21:44;23.43;;;16.60;;
9914;SDS011;4996;48.746;9.174;2023-02-15T13:24:17;27.73;;;17.10;;
9914;SDS011;4996;48.746;9.174;2023-02-15T13:26:47;20.33;;;16.07;;
9914;SDS011;4996;48.746;9.174;2023-02-15T13:29:21;22.00;;;14.57;;
9914;SDS011;4996;48.746;9.174;2023-02-15T13:31:50;27.83;;;16.23;;
9914;SDS011;4996;48.746;9.174;2023-02-15T13:39:33;28.23;;;17.43;;
9914;SDS011;4996;48.746;9.174;2023-02-15T13:42:20;24.47;;;15.63;;
9914;SDS011;4996;48.746;9.174;2023-02-15T13:44:54;31.50;;;17.77;;
9914;SDS011;4996;48.746;9.174;2023-02-15T13:53:27;21.47;;;15.40;;
9914;SDS011;4996;48.746;9.174;2023-02-15T13:59:19;27.77;;;17.70;;
9914;SDS011;4996;48.746;9.174;2023-02-15T14:05:10;26.40;;;16.33;;
9914;SDS011;4996;48.746;9.174;2023-02-15T14:10:35;26.30;;;16.90;;
9914;SDS011;4996;48.746;9.174;2023-02-15T14:13:26;24.03;;;15.33;;
9914;SDS011;4996;48.746;9.174;2023-02-15T14:18:45;23.83;;;15.13;;
9914;SDS011;4996;48.746;9.174;2023-02-15T14:21:22;19.37;;;15.27;;
9914;SDS011;4996;48.746;9.174;2023-02-15T14:29:28;13.60;;;10.60;;
9914;SDS011;4996;48.746;9.174;2023-02-15T14:32:10;16.13;;;9.03;;
9914;SDS011;4996;48.746;9.174;2023-02-15T14:37:11;12.90;;;8.67;;
9914;SDS011;4996;48.746;9.174;2023-02-15T14:39:43;15.83;;;9.40;;
9914;SDS011;4996;48.746;9.174;2023-02-15T14:42:56;15.60;;;12.00;;
9914;SDS011;4996;48.746;9.174;2023-02-15T14:45:31;19.80;;;13.33;;
9914;SDS011;4996;48.746;9.174;2023-02-15T14:48:15;20.90;;;13.10;;
9914;SDS011;4996;48.746;9.174;2023-02-15T14:50:47;17.93;;;8.80;;
9914;SDS011;4996;48.746;9.174;2023-02-15T14:53:18;13.13;;;9.23;;
9914;SDS011;4996;48.746;9.174;2023-02-15T15:03:57;13.13;;;6.47;;
9914;SDS011;4996;48.746;9.174;2023-02-15T15:06:27;10.63;;;8.00;;
9914;SDS011;4996;48.746;9.174;2023-02-15T15:08:58;27.77;;;16.47;;
9914;SDS011;4996;48.746;9.174;2023-02-15T15:11:48;31.83;;;17.37;;
9914;SDS011;4996;48.746;9.174;2023-02-15T15:14:36;23.30;;;17.03;;
9914;SDS011;4996;48.746;9.174;2023-02-15T15:17:04;24.03;;;16.23;;
9914;SDS011;4996;48.746;9.174;2023-02-15T15:22:18;21.00;;;14.50;;
9914;SDS011;4996;48.746;9.174;2023-02-15T15:24:57;23.83;;;14.70;;
9914;SDS011;4996;48.746;9.174;2023-02-15T15:32:40;20.53;;;13.03;;
9914;SDS011;4996;48.746;9.174;2023-02-15T15:35:25;22.67;;;13.13;;
9914;SDS011;4996;48.746;9.174;2023-02-15T15:38:20;17.43;;;10.67;;
9914;SDS011;4996;48.746;9.174;2023-02-15T15:41:24;12.17;;;8.90;;
9914;SDS011;4996;48.746;9.174;2023-02-15T15:49:54;17.93;;;11.03;;
9914;SDS011;4996;48.746;9.174;2023-02-15T15:52:24;23.73;;;13.43;;
9914;SDS011;4996;48.746;9.174;2023-02-15T15:54:58;23.60;;;15.20;;
9914;SDS011;4996;48.746;9.174;2023-02-15T15:57:38;23.47;;;13.60;;
9914;SDS011;4996;48.746;9.174;2023-02-15T16:00:05;22.70;;;15.80;;
9914;SDS011;4996;48.746;9.174;2023-02-15T16:02:56;20.17;;;14.30;;
9914;SDS011;4996;48.746;9.174;2023-02-15T16:05:21;26.83;;;14.93;;
9914;SDS011;4996;48.746;9.174;2023-02-15T16:07:48;25.83;;;15.70;;
9914;SDS011;4996;48.746;9.174;2023-02-15T16:10:24;26.47;;;14.60;;
9914;SDS011;4996;48.746;9.174;2023-02-15T16:12:52;24.70;;;14.90;;
9914;SDS011;4996;48.746;9.174;2023-02-15T16:15:21;18.53;;;15.17;;
9914;SDS011;4996;48.746;9.174;2023-02-15T16:17:52;28.23;;;15.77;;
9914;SDS011;4996;48.746;9.174;2023-02-15T16:23:31;28.50;;;14.60;;
9914;SDS011;4996;48.746;9.174;2023-02-15T16:26:13;27.97;;;15.43;;
9914;SDS011;4996;48.746;9.174;2023-02-15T16:28:54;24.10;;;14.37;;
9914;SDS011;4996;48.746;9.174;2023-02-15T16:31:20;21.53;;;15.40;;
9914;SDS011;4996;48.746;9.174;2023-02-15T16:33:47;22.97;;;15.23;;
9914;SDS011;4996;48.746;9.174;2023-02-15T16:41:21;25.77;;;15.30;;
9914;SDS011;4996;48.746;9.174;2023-02-15T16:43:50;29.10;;;16.17;;
9914;SDS011;4996;48.746;9.174;2023-02-15T16:46:33;27.30;;;16.50;;
9914;SDS011;4996;48.746;9.174;2023-02-15T16:49:05;30.57;;;16.70;;
9914;SDS011;4996;48.746;9.174;2023-02-15T16:51:39;23.13;;;16.83;;
9914;SDS011;4996;48.746;9.174;2023-02-15T16:54:08;33.97;;;15.57;;
9914;SDS011;4996;48.746;9.174;2023-02-15T16:56:42;25.93;;;15.87;;
9914;SDS011;4996;48.746;9.174;2023-02-15T16:59:14;30.53;;;15.33;;
9914;SDS011;4996;48.746;9.174;2023-02-15T17:02:21;23.77;;;14.10;;
9914;SDS011;4996;48.746;9.174;2023-02-15T17:11:04;26.73;;;14.90;;
9914;SDS011;4996;48.746;9.174;2023-02-15T17:14:10;27.40;;;13.90;;
9914;SDS011;4996;48.746;9.174;2023-02-15T17:16:35;21.10;;;13.20;;
9914;SDS011;4996;48.746;9.174;2023-02-15T17:19:31;18.63;;;12.30;;
9914;SDS011;4996;48.746;9.174;2023-02-15T17:22:05;21.17;;;11.23;;
9914;SDS011;4996;48.746;9.174;2023-02-15T17:24:41;20.43;;;10.47;;
9914;SDS011;4996;48.746;9.174;2023-02-15T17:27:12;27.53;;;11.13;;
9914;SDS011;4996;48.746;9.174;2023-02-15T17:29:46;20.13;;;9.40;;
9914;SDS011;4996;48.746;9.174;2023-02-15T17:32:20;21.53;;;10.27;;
9914;SDS011;4996;48.746;9.174;2023-02-15T17:35:07;15.73;;;8.73;;
9914;SDS011;4996;48.746;9.174;2023-02-15T17:37:42;18.17;;;9.67;;
9914;SDS011;4996;48.746;9.174;2023-02-15T17:40:23;21.57;;;10.33;;
9914;SDS011;4996;48.746;9.174;2023-02-15T17:42:50;22.33;;;9.30;;
9914;SDS011;4996;48.746;9.174;2023-02-15T17:45:16;17.67;;;7.90;;
9914;SDS011;4996;48.746;9.174;2023-02-15T17:47:42;16.57;;;8.47;;
9914;SDS011;4996;48.746;9.174;2023-02-15T17:50:23;18.93;;;9.80;;
9914;SDS011;4996;48.746;9.174;2023-02-15T17:52:51;19.23;;;9.50;;
9914;SDS011;4996;48.746;9.174;2023-02-15T17:55:18;29.80;;;12.10;;
9914;SDS011;4996;48.746;9.174;2023-02-15T17:58:12;29.13;;;10.10;;
9914;SDS011;4996;48.746;9.174;2023-02-15T18:00:43;22.20;;;10.43;;
9914;SDS011;4996;48.746;9.174;2023-02-15T18:03:40;19.60;;;10.00;;